createdAt,value
2023-02-17T00:00:51.827Z,1015.20
2023-02-17T00:01:51.816Z,1015.18
2023-02-17T00:02:51.803Z,1015.19
2023-02-17T00:04:12.802Z,1015.13
2023-02-17T00:04:51.793Z,1015.12
2023-02-17T00:05:51.776Z,1015.06
2023-02-17T00:06:51.764Z,1015.04
2023-02-17T00:07:51.756Z,1015.02
2023-02-17T00:08:51.758Z,1015.00
2023-02-17T00:10:12.741Z,1014.95
2023-02-17T00:10:51.727Z,1014.91
2023-02-17T00:11:51.719Z,1014.91
2023-02-17T00:12:51.715Z,1014.90
2023-02-17T00:13:51.702Z,1014.91
2023-02-17T00:14:51.696Z,1014.89
2023-02-17T00:16:12.738Z,1014.90
2023-02-17T00:16:51.739Z,1014.88
2023-02-17T00:17:51.672Z,1014.85
2023-02-17T00:18:51.650Z,1014.80
2023-02-17T00:19:51.642Z,1014.79
2023-02-17T00:20:51.640Z,1014.81
2023-02-17T00:22:12.631Z,1014.82
2023-02-17T00:22:51.621Z,1014.81
2023-02-17T00:23:51.605Z,1014.78
2023-02-17T00:24:51.595Z,1014.82
2023-02-17T00:25:51.593Z,1014.79
2023-02-17T00:26:51.575Z,1014.79
2023-02-17T00:28:12.573Z,1014.80
2023-02-17T00:28:51.572Z,1014.76
2023-02-17T00:29:51.560Z,1014.73
2023-02-17T00:30:51.624Z,1014.73
2023-02-17T00:31:51.612Z,1014.77
2023-02-17T00:32:51.524Z,1014.84
2023-02-17T00:34:12.517Z,1014.80
2023-02-17T00:34:51.535Z,1014.83
2023-02-17T00:35:51.488Z,1014.83
2023-02-17T00:36:51.487Z,1014.76
2023-02-17T00:37:51.472Z,1014.75
2023-02-17T00:38:51.469Z,1014.75
2023-02-17T00:40:12.461Z,1014.75
2023-02-17T00:40:51.451Z,1014.71
2023-02-17T00:41:51.436Z,1014.71
2023-02-17T00:42:51.430Z,1014.69
2023-02-17T00:43:51.420Z,1014.63
2023-02-17T00:44:51.405Z,1014.59
2023-02-17T00:46:12.494Z,1014.57
2023-02-17T00:46:51.447Z,1014.55
2023-02-17T00:47:51.384Z,1014.54
2023-02-17T00:48:51.399Z,1014.52
2023-02-17T00:49:51.359Z,1014.54
2023-02-17T00:50:51.353Z,1014.53
2023-02-17T00:52:12.348Z,1014.45
2023-02-17T00:52:51.330Z,1014.44
2023-02-17T00:53:51.324Z,1014.41
2023-02-17T00:54:51.314Z,1014.39
2023-02-17T00:55:51.308Z,1014.41
2023-02-17T00:56:51.295Z,1014.41
2023-02-17T00:58:12.295Z,1014.45
2023-02-17T00:58:51.271Z,1014.43
2023-02-17T00:59:51.272Z,1014.41
2023-02-17T01:00:51.253Z,1014.34
2023-02-17T01:01:51.275Z,1014.31
2023-02-17T01:02:51.241Z,1014.27
2023-02-17T01:04:12.239Z,1014.33
2023-02-17T01:04:51.287Z,1014.37
2023-02-17T01:05:51.208Z,1014.33
2023-02-17T01:06:51.194Z,1014.26
2023-02-17T01:07:51.201Z,1014.26
2023-02-17T01:08:51.184Z,1014.24
2023-02-17T01:10:12.234Z,1014.22
2023-02-17T01:10:51.165Z,1014.22
2023-02-17T01:11:51.156Z,1014.22
2023-02-17T01:12:51.149Z,1014.24
2023-02-17T01:13:51.130Z,1014.27
2023-02-17T01:14:51.120Z,1014.24
2023-02-17T01:16:12.163Z,1014.25
2023-02-17T01:16:51.102Z,1014.25
2023-02-17T01:17:51.110Z,1014.19
2023-02-17T01:18:51.084Z,1014.19
2023-02-17T01:19:51.084Z,1014.18
2023-02-17T01:20:51.070Z,1014.17
2023-02-17T01:22:12.067Z,1014.16
2023-02-17T01:22:51.044Z,1014.17
2023-02-17T01:23:51.046Z,1014.13
2023-02-17T01:24:51.057Z,1014.12
2023-02-17T01:25:51.039Z,1014.07
2023-02-17T01:26:51.010Z,1014.05
2023-02-17T01:28:12.006Z,1014.02
2023-02-17T01:28:50.987Z,1014.01
2023-02-17T01:29:50.983Z,1013.97
2023-02-17T01:30:51.017Z,1013.99
2023-02-17T01:31:50.979Z,1013.95
2023-02-17T01:32:50.950Z,1013.95
2023-02-17T01:34:11.959Z,1013.95
2023-02-17T01:34:50.932Z,1013.92
2023-02-17T01:35:50.928Z,1013.93
2023-02-17T01:36:50.908Z,1013.94
2023-02-17T01:37:50.904Z,1013.92
2023-02-17T01:38:50.894Z,1013.93
2023-02-17T01:40:11.888Z,1013.94
2023-02-17T01:40:50.871Z,1013.90
2023-02-17T01:41:50.865Z,1013.88
2023-02-17T01:42:50.848Z,1013.88
2023-02-17T01:43:50.845Z,1013.88
2023-02-17T01:44:50.843Z,1013.83
2023-02-17T01:46:11.895Z,1013.80
2023-02-17T01:46:50.903Z,1013.80
2023-02-17T01:47:50.809Z,1013.84
2023-02-17T01:48:50.807Z,1013.79
2023-02-17T01:49:50.788Z,1013.78
2023-02-17T01:50:50.781Z,1013.78
2023-02-17T01:52:11.795Z,1013.75
2023-02-17T01:52:50.753Z,1013.79
2023-02-17T01:53:50.741Z,1013.78
2023-02-17T01:54:50.743Z,1013.72
2023-02-17T01:55:50.725Z,1013.74
2023-02-17T01:56:50.716Z,1013.73
2023-02-17T01:58:11.711Z,1013.72
2023-02-17T01:58:50.695Z,1013.71
2023-02-17T01:59:50.682Z,1013.70
2023-02-17T02:00:50.682Z,1013.70
2023-02-17T02:01:50.724Z,1013.69
2023-02-17T02:02:50.830Z,1013.70
2023-02-17T02:04:11.649Z,1013.68
2023-02-17T02:04:50.636Z,1013.64
2023-02-17T02:05:50.627Z,1013.62
2023-02-17T02:06:50.626Z,1013.55
2023-02-17T02:07:50.603Z,1013.52
2023-02-17T02:08:50.604Z,1013.52
2023-02-17T02:10:11.589Z,1013.51
2023-02-17T02:10:50.581Z,1013.48
2023-02-17T02:11:50.567Z,1013.47
2023-02-17T02:12:50.565Z,1013.42
2023-02-17T02:13:50.552Z,1013.42
2023-02-17T02:14:50.548Z,1013.37
2023-02-17T02:16:11.586Z,1013.35
2023-02-17T02:16:50.525Z,1013.36
2023-02-17T02:17:50.511Z,1013.29
2023-02-17T02:18:50.504Z,1013.24
2023-02-17T02:19:50.492Z,1013.22
2023-02-17T02:20:50.488Z,1013.21
2023-02-17T02:22:11.488Z,1013.20
2023-02-17T02:22:50.469Z,1013.20
2023-02-17T02:23:50.464Z,1013.12
2023-02-17T02:24:50.454Z,1013.13
2023-02-17T02:25:50.434Z,1013.13
2023-02-17T02:26:50.429Z,1013.06
2023-02-17T02:28:11.425Z,1013.01
2023-02-17T02:28:50.410Z,1012.99
2023-02-17T02:29:50.395Z,1012.96
2023-02-17T02:30:50.417Z,1012.96
2023-02-17T02:31:50.469Z,1012.97
2023-02-17T02:32:50.372Z,1012.92
2023-02-17T02:34:11.372Z,1012.91
2023-02-17T02:34:50.351Z,1012.90
2023-02-17T02:35:50.340Z,1012.87
2023-02-17T02:36:50.339Z,1012.86
2023-02-17T02:37:50.321Z,1012.87
2023-02-17T02:38:50.313Z,1012.84
2023-02-17T02:40:11.324Z,1012.86
2023-02-17T02:40:50.299Z,1012.86
2023-02-17T02:41:50.417Z,1012.89
2023-02-17T02:42:50.280Z,1012.88
2023-02-17T02:43:50.261Z,1012.88
2023-02-17T02:44:50.255Z,1012.87
2023-02-17T02:46:11.333Z,1012.87
2023-02-17T02:46:50.238Z,1012.82
2023-02-17T02:47:50.240Z,1012.82
2023-02-17T02:48:50.219Z,1012.79
2023-02-17T02:49:50.212Z,1012.78
2023-02-17T02:50:50.199Z,1012.69
2023-02-17T02:52:11.191Z,1012.71
2023-02-17T02:52:50.175Z,1012.69
2023-02-17T02:53:50.170Z,1012.69
2023-02-17T02:54:50.158Z,1012.65
2023-02-17T02:55:50.145Z,1012.64
2023-02-17T02:56:50.139Z,1012.66
2023-02-17T02:58:11.129Z,1012.65
2023-02-17T02:58:50.121Z,1012.64
2023-02-17T02:59:50.106Z,1012.60
2023-02-17T03:00:50.135Z,1012.57
2023-02-17T03:01:50.084Z,1012.58
2023-02-17T03:02:50.080Z,1012.50
2023-02-17T03:04:11.116Z,1012.50
2023-02-17T03:04:50.059Z,1012.47
2023-02-17T03:05:50.050Z,1012.47
2023-02-17T03:06:50.053Z,1012.43
2023-02-17T03:07:50.036Z,1012.39
2023-02-17T03:08:50.019Z,1012.37
2023-02-17T03:10:11.040Z,1012.42
2023-02-17T03:10:50.000Z,1012.45
2023-02-17T03:11:49.994Z,1012.42
2023-02-17T03:12:49.982Z,1012.43
2023-02-17T03:13:50.009Z,1012.39
2023-02-17T03:14:49.972Z,1012.43
2023-02-17T03:16:10.991Z,1012.41
2023-02-17T03:16:49.949Z,1012.30
2023-02-17T03:17:49.934Z,1012.30
2023-02-17T03:18:49.921Z,1012.34
2023-02-17T03:19:49.915Z,1012.28
2023-02-17T03:20:49.912Z,1012.23
2023-02-17T03:22:10.897Z,1012.30
2023-02-17T03:22:49.878Z,1012.30
2023-02-17T03:23:49.866Z,1012.31
2023-02-17T03:24:49.871Z,1012.32
2023-02-17T03:25:49.853Z,1012.32
2023-02-17T03:26:49.842Z,1012.32
2023-02-17T03:28:10.833Z,1012.33
2023-02-17T03:28:49.820Z,1012.34
2023-02-17T03:29:49.813Z,1012.34
2023-02-17T03:30:49.813Z,1012.37
2023-02-17T03:31:49.922Z,1012.35
2023-02-17T03:32:49.790Z,1012.40
2023-02-17T03:34:10.769Z,1012.42
2023-02-17T03:34:49.762Z,1012.43
2023-02-17T03:35:49.749Z,1012.45
2023-02-17T03:36:49.745Z,1012.43
2023-02-17T03:37:49.731Z,1012.40
2023-02-17T03:38:49.720Z,1012.39
2023-02-17T03:40:10.719Z,1012.30
2023-02-17T03:40:49.700Z,1012.33
2023-02-17T03:41:49.694Z,1012.33
2023-02-17T03:42:49.687Z,1012.32
2023-02-17T03:43:49.671Z,1012.37
2023-02-17T03:44:49.657Z,1012.35
2023-02-17T03:46:10.667Z,1012.34
2023-02-17T03:46:49.659Z,1012.28
2023-02-17T03:47:49.632Z,1012.26
2023-02-17T03:48:49.619Z,1012.28
2023-02-17T03:49:49.612Z,1012.25
2023-02-17T03:50:49.602Z,1012.25
2023-02-17T03:52:10.604Z,1012.21
2023-02-17T03:52:49.583Z,1012.22
2023-02-17T03:53:49.589Z,1012.20
2023-02-17T03:54:49.569Z,1012.25
2023-02-17T03:55:49.558Z,1012.25
2023-02-17T03:56:49.541Z,1012.23
2023-02-17T03:58:10.529Z,1012.20
2023-02-17T03:58:49.518Z,1012.22
2023-02-17T03:59:49.512Z,1012.14
2023-02-17T04:00:49.497Z,1012.15
2023-02-17T04:01:49.493Z,1012.18
2023-02-17T04:02:49.479Z,1012.15
2023-02-17T04:04:10.648Z,1012.10
2023-02-17T04:04:49.462Z,1012.16
2023-02-17T04:05:49.452Z,1012.12
2023-02-17T04:06:49.441Z,1012.08
2023-02-17T04:07:49.434Z,1012.05
2023-02-17T04:08:49.429Z,1012.06
2023-02-17T04:10:10.410Z,1012.06
2023-02-17T04:10:49.401Z,1012.01
2023-02-17T04:11:49.389Z,1012.05
2023-02-17T04:12:49.375Z,1012.04
2023-02-17T04:13:49.368Z,1012.00
2023-02-17T04:14:49.350Z,1012.03
2023-02-17T04:16:10.358Z,1012.01
2023-02-17T04:16:49.350Z,1012.00
2023-02-17T04:17:49.336Z,1012.00
2023-02-17T04:18:49.316Z,1012.05
2023-02-17T04:19:49.311Z,1012.04
2023-02-17T04:20:49.307Z,1012.01
2023-02-17T04:22:10.294Z,1012.00
2023-02-17T04:22:49.273Z,1012.04
2023-02-17T04:23:49.281Z,1012.01
2023-02-17T04:24:49.258Z,1011.95
2023-02-17T04:25:49.259Z,1011.91
2023-02-17T04:26:49.239Z,1011.90
2023-02-17T04:28:10.235Z,1011.92
2023-02-17T04:28:49.220Z,1011.86
2023-02-17T04:29:49.211Z,1011.87
2023-02-17T04:30:49.304Z,1011.83
2023-02-17T04:31:49.312Z,1011.79
2023-02-17T04:32:49.178Z,1011.79
2023-02-17T04:34:10.172Z,1011.76
2023-02-17T04:34:49.156Z,1011.72
2023-02-17T04:35:49.152Z,1011.70
2023-02-17T04:36:49.134Z,1011.74
2023-02-17T04:37:49.130Z,1011.78
2023-02-17T04:38:49.115Z,1011.77
2023-02-17T04:40:10.130Z,1011.82
2023-02-17T04:40:49.092Z,1011.89
2023-02-17T04:41:49.103Z,1011.91
2023-02-17T04:42:49.077Z,1011.97
2023-02-17T04:43:49.084Z,1011.93
2023-02-17T04:44:49.072Z,1011.91
2023-02-17T04:46:10.344Z,1011.93
2023-02-17T04:46:49.032Z,1011.86
2023-02-17T04:47:49.027Z,1011.81
2023-02-17T04:48:49.023Z,1011.82
2023-02-17T04:49:49.016Z,1011.80
2023-02-17T04:50:48.998Z,1011.77
2023-02-17T04:52:09.996Z,1011.73
2023-02-17T04:52:48.974Z,1011.71
2023-02-17T04:53:48.967Z,1011.72
2023-02-17T04:54:48.962Z,1011.66
2023-02-17T04:55:48.953Z,1011.61
2023-02-17T04:56:48.933Z,1011.61
2023-02-17T04:58:09.933Z,1011.59
2023-02-17T04:58:48.921Z,1011.57
2023-02-17T04:59:48.906Z,1011.52
2023-02-17T05:00:48.926Z,1011.58
2023-02-17T05:01:48.892Z,1011.61
2023-02-17T05:02:48.873Z,1011.56
2023-02-17T05:04:09.880Z,1011.64
2023-02-17T05:04:48.892Z,1011.62
2023-02-17T05:05:48.846Z,1011.64
2023-02-17T05:06:48.835Z,1011.63
2023-02-17T05:07:48.828Z,1011.65
2023-02-17T05:08:48.822Z,1011.58
2023-02-17T05:10:09.819Z,1011.52
2023-02-17T05:10:48.794Z,1011.51
2023-02-17T05:11:48.787Z,1011.49
2023-02-17T05:12:48.774Z,1011.49
2023-02-17T05:13:48.765Z,1011.50
2023-02-17T05:14:48.755Z,1011.49
2023-02-17T05:16:09.917Z,1011.50
2023-02-17T05:16:48.882Z,1011.51
2023-02-17T05:17:48.729Z,1011.55
2023-02-17T05:18:48.714Z,1011.52
2023-02-17T05:19:48.711Z,1011.53
2023-02-17T05:20:48.699Z,1011.52
2023-02-17T05:22:09.698Z,1011.44
2023-02-17T05:22:48.674Z,1011.40
2023-02-17T05:23:48.714Z,1011.44
2023-02-17T05:24:48.659Z,1011.47
2023-02-17T05:25:48.683Z,1011.48
2023-02-17T05:26:48.638Z,1011.50
2023-02-17T05:28:09.633Z,1011.53
2023-02-17T05:28:48.616Z,1011.48
2023-02-17T05:29:48.615Z,1011.47
2023-02-17T05:30:48.641Z,1011.40
2023-02-17T05:31:48.708Z,1011.31
2023-02-17T05:32:48.582Z,1011.31
2023-02-17T05:34:09.597Z,1011.35
2023-02-17T05:34:48.560Z,1011.27
2023-02-17T05:35:48.551Z,1011.29
2023-02-17T05:36:48.538Z,1011.28
2023-02-17T05:37:48.536Z,1011.32
2023-02-17T05:38:48.519Z,1011.31
2023-02-17T05:40:09.531Z,1011.31
2023-02-17T05:40:48.499Z,1011.35
2023-02-17T05:41:48.494Z,1011.34
2023-02-17T05:42:48.478Z,1011.31
2023-02-17T05:43:48.471Z,1011.35
2023-02-17T05:44:48.469Z,1011.31
2023-02-17T05:46:09.782Z,1011.32
2023-02-17T05:46:48.454Z,1011.32
2023-02-17T05:47:48.436Z,1011.36
2023-02-17T05:48:48.439Z,1011.35
2023-02-17T05:49:48.409Z,1011.34
2023-02-17T05:50:48.421Z,1011.28
2023-02-17T05:52:09.394Z,1011.28
2023-02-17T05:52:48.384Z,1011.30
2023-02-17T05:53:48.372Z,1011.23
2023-02-17T05:54:48.371Z,1011.28
2023-02-17T05:55:48.912Z,1011.20
2023-02-17T05:56:48.346Z,1011.21
2023-02-17T05:58:09.347Z,1011.24
2023-02-17T05:58:48.336Z,1011.21
2023-02-17T05:59:48.318Z,1011.22
2023-02-17T06:00:48.303Z,1011.17
2023-02-17T06:01:48.316Z,1011.21
2023-02-17T06:02:48.360Z,1011.16
2023-02-17T06:04:09.278Z,1011.17
2023-02-17T06:04:48.431Z,1011.19
2023-02-17T06:05:48.258Z,1011.12
2023-02-17T06:06:48.247Z,1011.11
2023-02-17T06:07:48.232Z,1011.08
2023-02-17T06:08:48.242Z,1011.06
2023-02-17T06:10:09.239Z,1011.07
2023-02-17T06:10:48.210Z,1011.06
2023-02-17T06:11:48.198Z,1011.02
2023-02-17T06:12:48.188Z,1011.03
2023-02-17T06:13:48.174Z,1010.95
2023-02-17T06:14:48.172Z,1010.96
2023-02-17T06:16:09.612Z,1010.93
2023-02-17T06:16:48.286Z,1010.96
2023-02-17T06:17:48.135Z,1010.98
2023-02-17T06:18:48.135Z,1010.95
2023-02-17T06:19:48.116Z,1010.90
2023-02-17T06:20:48.112Z,1010.87
2023-02-17T06:22:09.102Z,1010.89
2023-02-17T06:22:48.090Z,1010.91
2023-02-17T06:23:48.080Z,1010.88
2023-02-17T06:24:48.070Z,1010.86
2023-02-17T06:25:48.057Z,1010.87
2023-02-17T06:26:48.057Z,1010.87
2023-02-17T06:28:09.043Z,1010.88
2023-02-17T06:28:48.029Z,1010.88
2023-02-17T06:29:48.013Z,1010.88
2023-02-17T06:30:48.012Z,1010.89
2023-02-17T06:31:48.194Z,1010.88
2023-02-17T06:32:47.990Z,1010.90
2023-02-17T06:34:08.977Z,1010.91
2023-02-17T06:34:47.967Z,1010.91
2023-02-17T06:35:47.951Z,1010.90
2023-02-17T06:36:47.953Z,1010.90
2023-02-17T06:37:47.934Z,1010.88
2023-02-17T06:38:47.945Z,1010.87
2023-02-17T06:40:08.935Z,1010.83
2023-02-17T06:40:47.905Z,1010.81
2023-02-17T06:41:47.892Z,1010.83
2023-02-17T06:42:47.893Z,1010.81
2023-02-17T06:43:47.872Z,1010.86
2023-02-17T06:44:47.891Z,1010.87
2023-02-17T06:46:09.344Z,1010.83
2023-02-17T06:46:47.841Z,1010.81
2023-02-17T06:47:47.837Z,1010.80
2023-02-17T06:48:47.825Z,1010.85
2023-02-17T06:49:47.853Z,1010.82
2023-02-17T06:50:47.803Z,1010.90
2023-02-17T06:52:08.821Z,1010.87
2023-02-17T06:52:47.783Z,1010.85
2023-02-17T06:53:47.777Z,1010.79
2023-02-17T06:54:47.764Z,1010.80
2023-02-17T06:55:47.756Z,1010.74
2023-02-17T06:56:47.765Z,1010.79
2023-02-17T06:58:08.740Z,1010.80
2023-02-17T06:58:47.723Z,1010.79
2023-02-17T06:59:47.727Z,1010.76
2023-02-17T07:00:47.711Z,1010.76
2023-02-17T07:01:47.795Z,1010.66
2023-02-17T07:02:47.776Z,1010.64
2023-02-17T07:04:08.693Z,1010.62
2023-02-17T07:04:47.672Z,1010.62
2023-02-17T07:05:47.665Z,1010.59
2023-02-17T07:06:47.679Z,1010.53
2023-02-17T07:07:47.641Z,1010.55
2023-02-17T07:08:47.630Z,1010.57
2023-02-17T07:10:08.634Z,1010.60
2023-02-17T07:10:47.620Z,1010.54
2023-02-17T07:11:47.603Z,1010.55
2023-02-17T07:12:47.608Z,1010.56
2023-02-17T07:13:47.618Z,1010.57
2023-02-17T07:14:47.575Z,1010.60
2023-02-17T07:16:08.885Z,1010.56
2023-02-17T07:16:47.599Z,1010.52
2023-02-17T07:17:47.543Z,1010.55
2023-02-17T07:18:47.537Z,1010.54
2023-02-17T07:19:47.629Z,1010.55
2023-02-17T07:20:47.514Z,1010.53
2023-02-17T07:22:08.520Z,1010.53
2023-02-17T07:22:47.505Z,1010.55
2023-02-17T07:23:47.498Z,1010.55
2023-02-17T07:24:47.484Z,1010.57
2023-02-17T07:25:47.473Z,1010.56
2023-02-17T07:26:47.458Z,1010.56
2023-02-17T07:28:08.463Z,1010.53
2023-02-17T07:28:47.442Z,1010.53
2023-02-17T07:29:47.433Z,1010.53
2023-02-17T07:30:47.451Z,1010.53
2023-02-17T07:31:47.448Z,1010.50
2023-02-17T07:32:47.400Z,1010.49
2023-02-17T07:34:08.404Z,1010.53
2023-02-17T07:34:47.386Z,1010.52
2023-02-17T07:35:47.388Z,1010.48
2023-02-17T07:36:47.363Z,1010.52
2023-02-17T07:37:47.352Z,1010.48
2023-02-17T07:38:47.340Z,1010.46
2023-02-17T07:40:08.350Z,1010.37
2023-02-17T07:40:47.331Z,1010.36
2023-02-17T07:41:47.314Z,1010.41
2023-02-17T07:42:47.318Z,1010.37
2023-02-17T07:43:47.296Z,1010.34
2023-02-17T07:44:47.286Z,1010.35
2023-02-17T07:46:08.904Z,1010.33
2023-02-17T07:46:47.263Z,1010.34
2023-02-17T07:47:47.260Z,1010.32
2023-02-17T07:48:47.243Z,1010.36
2023-02-17T07:49:47.238Z,1010.33
2023-02-17T07:50:47.222Z,1010.39
2023-02-17T07:52:08.225Z,1010.38
2023-02-17T07:52:47.211Z,1010.37
2023-02-17T07:53:47.195Z,1010.36
2023-02-17T07:54:47.188Z,1010.30
2023-02-17T07:55:47.178Z,1010.28
2023-02-17T07:56:47.212Z,1010.27
2023-02-17T07:58:08.166Z,1010.30
2023-02-17T07:58:47.147Z,1010.29
2023-02-17T07:59:47.147Z,1010.30
2023-02-17T08:00:47.130Z,1010.26
2023-02-17T08:01:47.198Z,1010.24
2023-02-17T08:02:47.115Z,1010.31
2023-02-17T08:04:08.233Z,1010.32
2023-02-17T08:04:47.097Z,1010.33
2023-02-17T08:05:48.237Z,1010.35
2023-02-17T08:06:47.071Z,1010.28
2023-02-17T08:07:47.067Z,1010.30
2023-02-17T08:08:47.055Z,1010.33
2023-02-17T08:10:08.058Z,1010.34
2023-02-17T08:10:47.033Z,1010.34
2023-02-17T08:11:48.922Z,1010.35
2023-02-17T08:12:47.016Z,1010.31
2023-02-17T08:13:47.021Z,1010.29
2023-02-17T08:14:47.000Z,1010.31
2023-02-17T08:16:08.390Z,1010.25
2023-02-17T08:16:47.029Z,1010.29
2023-02-17T08:17:49.327Z,1010.29
2023-02-17T08:18:46.960Z,1010.29
2023-02-17T08:19:48.815Z,1010.27
2023-02-17T08:20:46.946Z,1010.27
2023-02-17T08:22:07.941Z,1010.29
2023-02-17T08:22:46.967Z,1010.28
2023-02-17T08:23:46.946Z,1010.22
2023-02-17T08:24:46.944Z,1010.25
2023-02-17T08:25:46.920Z,1010.24
2023-02-17T08:26:46.892Z,1010.18
2023-02-17T08:28:07.894Z,1010.18
2023-02-17T08:28:46.897Z,1010.21
2023-02-17T08:29:46.868Z,1010.17
2023-02-17T08:30:46.974Z,1010.16
2023-02-17T08:31:46.945Z,1010.14
2023-02-17T08:32:46.848Z,1010.14
2023-02-17T08:34:07.838Z,1010.14
2023-02-17T08:34:46.946Z,1010.16
2023-02-17T08:35:46.811Z,1010.12
2023-02-17T08:36:46.804Z,1010.13
2023-02-17T08:37:46.787Z,1010.13
2023-02-17T08:38:46.786Z,1010.07
2023-02-17T08:40:07.778Z,1010.07
2023-02-17T08:40:46.762Z,1010.06
2023-02-17T08:41:46.797Z,1010.06
2023-02-17T08:42:46.756Z,1010.06
2023-02-17T08:43:46.765Z,1009.99
2023-02-17T08:44:46.727Z,1010.01
2023-02-17T08:46:08.132Z,1009.99
2023-02-17T08:46:46.704Z,1009.99
2023-02-17T08:47:46.705Z,1009.99
2023-02-17T08:48:46.684Z,1009.97
2023-02-17T08:49:46.695Z,1009.96
2023-02-17T08:50:46.666Z,1009.92
2023-02-17T08:52:07.676Z,1009.97
2023-02-17T08:52:46.648Z,1009.92
2023-02-17T08:53:46.668Z,1009.90
2023-02-17T08:54:46.639Z,1009.89
2023-02-17T08:55:49.410Z,1009.89
2023-02-17T08:56:46.676Z,1009.85
2023-02-17T08:58:07.675Z,1009.81
2023-02-17T08:58:46.591Z,1009.83
2023-02-17T08:59:46.601Z,1009.82
2023-02-17T09:00:46.585Z,1009.74
2023-02-17T09:01:46.670Z,1009.71
2023-02-17T09:02:46.557Z,1009.70
2023-02-17T09:04:07.569Z,1009.72
2023-02-17T09:04:46.610Z,1009.64
2023-02-17T09:05:46.534Z,1009.63
2023-02-17T09:06:46.545Z,1009.56
2023-02-17T09:07:46.524Z,1009.59
2023-02-17T09:08:46.503Z,1009.51
2023-02-17T09:10:07.505Z,1009.54
2023-02-17T09:10:46.487Z,1009.47
2023-02-17T09:11:46.505Z,1009.46
2023-02-17T09:12:46.474Z,1009.43
2023-02-17T09:13:46.512Z,1009.46
2023-02-17T09:14:46.449Z,1009.46
2023-02-17T09:16:07.907Z,1009.46
2023-02-17T09:16:46.436Z,1009.45
2023-02-17T09:17:46.432Z,1009.43
2023-02-17T09:18:46.485Z,1009.36
2023-02-17T09:19:46.422Z,1009.34
2023-02-17T09:20:46.464Z,1009.32
2023-02-17T09:22:07.403Z,1009.29
2023-02-17T09:22:46.377Z,1009.32
2023-02-17T09:23:46.454Z,1009.24
2023-02-17T09:24:46.454Z,1009.28
2023-02-17T09:25:46.444Z,1009.21
2023-02-17T09:26:46.358Z,1009.19
2023-02-17T09:28:07.347Z,1009.14
2023-02-17T09:28:46.369Z,1009.19
2023-02-17T09:29:46.364Z,1009.19
2023-02-17T09:30:46.404Z,1009.17
2023-02-17T09:31:46.488Z,1009.16
2023-02-17T09:32:46.318Z,1009.15
2023-02-17T09:34:07.288Z,1009.14
2023-02-17T09:34:46.273Z,1009.09
2023-02-17T09:35:46.267Z,1009.10
2023-02-17T09:36:46.297Z,1009.00
2023-02-17T09:37:46.267Z,1009.03
2023-02-17T09:38:46.278Z,1009.06
2023-02-17T09:40:07.239Z,1009.06
2023-02-17T09:40:46.227Z,1009.04
2023-02-17T09:41:46.421Z,1009.04
2023-02-17T09:42:46.254Z,1008.98
2023-02-17T09:43:46.216Z,1008.98
2023-02-17T09:44:46.219Z,1008.95
2023-02-17T09:46:07.449Z,1008.90
2023-02-17T09:46:59.733Z,1008.88
2023-02-17T09:47:46.167Z,1008.93
2023-02-17T09:48:46.194Z,1008.90
2023-02-17T09:49:46.268Z,1008.91
2023-02-17T09:50:46.140Z,1008.92
2023-02-17T09:52:07.154Z,1008.90
2023-02-17T09:52:46.117Z,1008.86
2023-02-17T09:53:46.118Z,1008.92
2023-02-17T09:54:46.101Z,1008.84
2023-02-17T09:55:46.143Z,1008.86
2023-02-17T09:56:46.130Z,1008.77
2023-02-17T09:58:07.134Z,1008.82
2023-02-17T09:58:46.063Z,1008.80
2023-02-17T09:59:46.080Z,1008.74
2023-02-17T10:00:46.105Z,1008.78
2023-02-17T10:01:46.142Z,1008.74
2023-02-17T10:02:46.021Z,1008.78
2023-02-17T10:04:07.089Z,1008.74
2023-02-17T10:04:46.099Z,1008.73
2023-02-17T10:05:45.999Z,1008.70
2023-02-17T10:06:46.015Z,1008.70
2023-02-17T10:07:46.003Z,1008.75
2023-02-17T10:08:45.972Z,1008.69
2023-02-17T10:10:07.031Z,1008.69
2023-02-17T10:10:45.975Z,1008.70
2023-02-17T10:11:46.010Z,1008.64
2023-02-17T10:12:45.930Z,1008.60
2023-02-17T10:13:45.978Z,1008.61
2023-02-17T10:14:45.926Z,1008.63
2023-02-17T10:16:07.238Z,1008.58
2023-02-17T10:16:45.943Z,1008.56
2023-02-17T10:17:45.900Z,1008.58
2023-02-17T10:18:45.878Z,1008.56
2023-02-17T10:19:45.870Z,1008.52
2023-02-17T10:20:45.881Z,1008.42
2023-02-17T10:22:06.900Z,1008.51
2023-02-17T10:22:45.919Z,1008.48
2023-02-17T10:23:45.907Z,1008.48
2023-02-17T10:24:45.821Z,1008.49
2023-02-17T10:25:45.819Z,1008.34
2023-02-17T10:26:45.908Z,1008.35
2023-02-17T10:28:06.855Z,1008.34
2023-02-17T10:28:45.791Z,1008.21
2023-02-17T10:29:45.791Z,1008.22
2023-02-17T10:30:45.924Z,1008.17
2023-02-17T10:31:46.036Z,1008.15
2023-02-17T10:32:45.836Z,1008.18
2023-02-17T10:34:06.826Z,1008.12
2023-02-17T10:34:45.736Z,1008.14
2023-02-17T10:35:45.730Z,1008.13
2023-02-17T10:36:45.733Z,1008.15
2023-02-17T10:37:45.794Z,1008.11
2023-02-17T10:38:45.700Z,1008.14
2023-02-17T10:40:06.727Z,1008.12
2023-02-17T10:40:45.697Z,1008.12
2023-02-17T10:41:45.680Z,1008.11
2023-02-17T10:42:45.664Z,1008.17
2023-02-17T10:43:45.679Z,1008.00
2023-02-17T10:44:45.671Z,1008.07
2023-02-17T10:46:06.996Z,1008.02
2023-02-17T10:46:45.651Z,1007.98
2023-02-17T10:47:45.624Z,1007.85
2023-02-17T10:48:45.613Z,1007.87
2023-02-17T10:49:45.609Z,1007.86
2023-02-17T10:50:45.596Z,1007.91
2023-02-17T10:52:06.594Z,1007.95
2023-02-17T10:52:45.591Z,1008.00
2023-02-17T10:53:45.572Z,1007.91
2023-02-17T10:54:45.561Z,1008.02
2023-02-17T10:55:45.562Z,1007.97
2023-02-17T10:56:45.550Z,1007.95
2023-02-17T10:58:06.556Z,1007.89
2023-02-17T10:58:45.529Z,1007.85
2023-02-17T10:59:45.525Z,1007.79
2023-02-17T11:00:45.529Z,1007.78
2023-02-17T11:01:45.508Z,1007.78
2023-02-17T11:02:45.492Z,1007.76
2023-02-17T11:04:06.603Z,1007.70
2023-02-17T11:04:45.479Z,1007.70
2023-02-17T11:05:45.471Z,1007.59
2023-02-17T11:06:45.473Z,1007.53
2023-02-17T11:07:45.453Z,1007.62
2023-02-17T11:08:45.441Z,1007.55
2023-02-17T11:10:06.440Z,1007.49
2023-02-17T11:10:45.424Z,1007.42
2023-02-17T11:11:45.421Z,1007.41
2023-02-17T11:12:45.409Z,1007.32
2023-02-17T11:13:45.400Z,1007.33
2023-02-17T11:14:45.390Z,1007.32
2023-02-17T11:16:06.771Z,1007.27
2023-02-17T11:16:45.481Z,1007.24
2023-02-17T11:17:45.365Z,1007.23
2023-02-17T11:18:45.356Z,1007.18
2023-02-17T11:19:45.351Z,1007.20
2023-02-17T11:20:45.352Z,1007.16
2023-02-17T11:22:06.339Z,1007.15
2023-02-17T11:22:45.325Z,1007.03
2023-02-17T11:23:45.321Z,1007.05
2023-02-17T11:24:45.303Z,1007.07
2023-02-17T11:25:45.414Z,1007.12
2023-02-17T11:26:45.290Z,1007.17
2023-02-17T11:28:06.293Z,1007.13
2023-02-17T11:28:45.274Z,1007.05
2023-02-17T11:29:45.301Z,1007.01
2023-02-17T11:30:45.253Z,1007.08
2023-02-17T11:31:45.410Z,1007.10
2023-02-17T11:32:45.236Z,1007.08
2023-02-17T11:34:06.235Z,1007.05
2023-02-17T11:34:45.269Z,1006.99
2023-02-17T11:35:45.217Z,1006.90
2023-02-17T11:36:45.244Z,1006.85
2023-02-17T11:37:45.220Z,1006.80
2023-02-17T11:38:45.222Z,1006.68
2023-02-17T11:40:06.187Z,1006.67
2023-02-17T11:40:45.169Z,1006.66
2023-02-17T11:41:45.172Z,1006.67
2023-02-17T11:42:45.169Z,1006.65
2023-02-17T11:43:45.156Z,1006.60
2023-02-17T11:44:45.164Z,1006.54
2023-02-17T11:46:06.476Z,1006.52
2023-02-17T11:46:45.140Z,1006.44
2023-02-17T11:47:45.119Z,1006.45
2023-02-17T11:48:45.109Z,1006.42
2023-02-17T11:49:45.100Z,1006.34
2023-02-17T11:50:45.138Z,1006.34
2023-02-17T11:52:06.089Z,1006.28
2023-02-17T11:52:45.074Z,1006.22
2023-02-17T11:53:45.075Z,1006.21
2023-02-17T11:54:45.052Z,1006.15
2023-02-17T11:55:45.070Z,1006.15
2023-02-17T11:56:45.043Z,1006.10
2023-02-17T11:58:06.035Z,1006.11
2023-02-17T11:58:45.016Z,1006.04
2023-02-17T11:59:45.059Z,1006.10
2023-02-17T12:00:45.003Z,1006.09
2023-02-17T12:01:45.043Z,1006.07
2023-02-17T12:02:45.166Z,1006.07
2023-02-17T12:04:05.989Z,1006.13
2023-02-17T12:04:44.986Z,1006.07
2023-02-17T12:05:44.959Z,1006.08